createdAt,value
2018-11-11T00:00:01.491Z,11.1
2018-11-11T00:10:01.461Z,11.2
2018-11-11T00:15:01.426Z,11.1
2018-11-11T00:20:01.471Z,11.2
2018-11-11T00:30:01.546Z,11.1
2018-11-11T00:45:01.500Z,11.1
2018-11-11T01:00:01.617Z,11.1
2018-11-11T01:15:01.487Z,11.2
2018-11-11T01:30:01.506Z,11.2
2018-11-11T01:45:01.522Z,11.2
2018-11-11T02:00:02.438Z,11.2
2018-11-11T02:15:01.491Z,11.2
2018-11-11T02:30:01.655Z,11.3
2018-11-11T02:45:01.489Z,11.3
2018-11-11T02:50:01.464Z,11.2
2018-11-11T03:00:01.494Z,11.2
2018-11-11T03:15:01.410Z,11.3
2018-11-11T03:30:01.533Z,11.2
2018-11-11T03:45:01.503Z,11.2
2018-11-11T04:00:01.508Z,11.2
2018-11-11T04:15:01.476Z,11.2
2018-11-11T04:30:02.536Z,11.2
2018-11-11T04:45:01.490Z,11.2
2018-11-11T05:00:01.505Z,11.2
2018-11-11T05:15:01.488Z,11.2
2018-11-11T05:30:01.472Z,11.2
2018-11-11T05:45:01.477Z,11.1
2018-11-11T06:00:01.384Z,11.1
2018-11-11T06:15:01.543Z,11.1
2018-11-11T06:30:01.378Z,11.1
2018-11-11T06:40:06.381Z,11.2
2018-11-11T06:45:01.514Z,11.2
2018-11-11T07:00:06.381Z,11.2
2018-11-11T07:15:01.419Z,11.2
2018-11-11T07:21:01.386Z,11.3
2018-11-11T07:36:01.652Z,11.3
2018-11-11T07:51:06.413Z,11.3
2018-11-11T08:01:01.359Z,11.4
2018-11-11T08:11:01.399Z,11.5
2018-11-11T08:16:01.377Z,11.6
2018-11-11T08:31:01.345Z,11.6
2018-11-11T08:36:01.357Z,11.7
2018-11-11T08:46:01.379Z,11.9
2018-11-11T08:51:01.371Z,12.0
2018-11-11T08:56:01.220Z,12.1
2018-11-11T09:01:01.194Z,12.2
2018-11-11T09:06:01.557Z,12.3
2018-11-11T09:11:01.545Z,12.4
2018-11-11T09:16:01.424Z,12.5
2018-11-11T09:31:01.600Z,12.4
2018-11-11T09:36:01.584Z,12.3
2018-11-11T09:51:01.849Z,12.3
2018-11-11T10:06:01.573Z,12.3
2018-11-11T10:16:01.581Z,12.4
2018-11-11T10:21:01.722Z,12.5
2018-11-11T10:26:01.555Z,12.6
2018-11-11T10:31:01.613Z,12.7
2018-11-11T10:36:01.422Z,12.8
2018-11-11T10:51:01.496Z,12.8
2018-11-11T10:56:01.579Z,12.7
2018-11-11T11:06:01.470Z,12.8
2018-11-11T11:22:06.388Z,12.9
2018-11-11T11:37:06.344Z,12.9
2018-11-11T11:47:01.352Z,12.8
2018-11-11T12:02:01.528Z,12.7
2018-11-11T12:17:01.766Z,12.7
2018-11-11T12:33:01.390Z,12.8
2018-11-11T12:38:01.255Z,12.9
2018-11-11T12:43:01.398Z,13.0
2018-11-11T12:48:01.478Z,13.2
2018-11-11T13:03:01.351Z,13.2
2018-11-11T13:08:01.483Z,13.1
2018-11-11T13:18:01.112Z,13.0
2018-11-11T13:33:01.550Z,13.0
2018-11-11T13:38:01.867Z,12.9
2018-11-11T13:48:01.571Z,12.8
2018-11-11T13:58:01.569Z,12.7
2018-11-11T14:08:01.648Z,12.6
2018-11-11T14:23:01.569Z,12.6
2018-11-11T14:33:01.588Z,12.5
2018-11-11T14:48:01.553Z,12.5
2018-11-11T14:53:01.844Z,12.4
2018-11-11T15:08:01.725Z,12.3
2018-11-11T15:13:02.542Z,12.2
2018-11-11T15:28:01.333Z,12.2
2018-11-11T15:43:01.371Z,12.2
2018-11-11T15:58:01.348Z,12.2
2018-11-11T16:08:01.361Z,12.1
2018-11-11T16:23:01.345Z,12.0
2018-11-11T16:38:02.067Z,12.0
2018-11-11T16:53:01.701Z,12.0
2018-11-11T16:58:01.409Z,11.9
2018-11-11T17:08:02.400Z,11.8
2018-11-11T17:18:01.472Z,11.7
2018-11-11T17:23:01.583Z,11.8
2018-11-11T17:38:01.495Z,11.8
2018-11-11T17:48:01.661Z,11.7
2018-11-11T18:03:01.472Z,11.6
2018-11-11T18:13:01.468Z,11.5
2018-11-11T18:18:01.406Z,11.4
2018-11-11T18:28:01.682Z,11.3
2018-11-11T18:43:01.492Z,11.3
2018-11-11T18:48:01.452Z,11.4
2018-11-11T19:04:01.455Z,11.4
2018-11-11T19:19:01.551Z,11.4
2018-11-11T19:29:01.535Z,11.3
2018-11-11T19:44:01.467Z,11.3
2018-11-11T19:49:01.419Z,11.2
2018-11-11T20:04:01.530Z,11.2
2018-11-11T20:15:01.477Z,11.1
2018-11-11T20:30:02.505Z,11.0
2018-11-11T20:45:01.495Z,11.0
2018-11-11T20:55:01.529Z,11.1
2018-11-11T21:00:01.703Z,11.1
2018-11-11T21:15:01.570Z,11.1
2018-11-11T21:30:01.492Z,11.1
2018-11-11T21:45:01.559Z,11.0
2018-11-11T21:55:01.454Z,10.9
2018-11-11T22:00:02.477Z,10.9
2018-11-11T22:15:01.514Z,10.8
2018-11-11T22:25:01.471Z,10.7
2018-11-11T22:30:01.496Z,10.7
2018-11-11T22:45:02.528Z,10.7
2018-11-11T22:50:02.495Z,10.6
2018-11-11T22:55:01.417Z,10.5
2018-11-11T23:00:01.904Z,10.4
2018-11-11T23:05:01.401Z,10.3
2018-11-11T23:15:01.597Z,10.2
2018-11-11T23:25:01.484Z,10.1
2018-11-11T23:41:01.512Z,10.1
2018-11-11T23:56:01.460Z,10.1
